Time;durP1;ratioP1;P1;durP2;ratioP2;P2;SDS_P1;SDS_P2;PMS_P1;PMS_P2;Temp;Humidity;BMP_temperature;BMP_pressure;BME280_temperature;BME280_humidity;BME280_pressure;Samples;Min_cycle;Max_cycle;Signal;HPM_P1;HPM_P2
2023/06/17 00:04:07;;;;;;;15.50;10.80;;;;;;;14.64;91.39;100208.41;223537;1263;139084;-88
2023/06/17 00:09:08;;;;;;;18.10;11.40;;;;;;;14.54;91.61;100201.05;222868;1266;142645;-87
2023/06/17 00:14:08;;;;;;;14.80;11.20;;;;;;;14.44;92.76;100194.31;223438;1264;139162;-88
2023/06/17 00:19:20;;;;;;;18.00;10.70;;;;;;;14.34;93.19;100192.04;222792;1267;141268;-87
2023/06/17 00:24:21;;;;;;;14.90;11.10;;;;;;;14.24;93.37;100188.63;223538;1267;139734;-88
2023/06/17 00:29:23;;;;;;;17.00;12.50;;;;;;;14.18;93.82;100188.91;222938;1264;141760;-88
2023/06/17 00:34:23;;;;;;;13.70;9.90;;;;;;;14.11;94.46;100189.33;223456;1264;139666;-87
2023/06/17 00:39:24;;;;;;;14.90;11.30;;;;;;;14.04;94.22;100195.39;223040;1263;141314;-88
2023/06/17 00:44:24;;;;;;;13.60;10.10;;;;;;;13.95;94.22;100199.10;223641;1264;140112;-88
2023/06/17 00:49:34;;;;;;;15.10;10.90;;;;;;;13.84;94.47;100198.76;220529;1267;141184;-88
2023/06/17 00:54:40;;;;;;;13.90;10.80;;;;;;;13.76;94.53;100198.49;223145;1267;139936;-89
2023/06/17 00:59:43;;;;;;;15.20;11.40;;;;;;;13.70;95.42;100205.86;222908;1267;141278;-89
2023/06/17 01:04:43;;;;;;;14.80;11.40;;;;;;;13.62;95.37;100203.77;223614;1264;139071;-88
2023/06/17 01:09:50;;;;;;;14.60;10.40;;;;;;;13.58;94.52;100200.55;222852;1267;141598;-89
2023/06/17 01:14:52;;;;;;;;;;;;;;;13.56;95.15;100201.04;223571;1264;139371;-89
2023/06/17 01:19:54;;;;;;;13.20;9.10;;;;;;;13.50;96.62;100194.13;223124;1265;128384;-89
2023/06/17 01:24:56;;;;;;;15.40;11.50;;;;;;;13.44;96.35;100193.20;223605;1266;140542;-88
2023/06/17 01:29:56;;;;;;;13.70;10.40;;;;;;;13.39;96.86;100188.39;223154;1265;141502;-88
2023/06/17 01:35:06;;;;;;;13.00;10.20;;;;;;;13.34;96.83;100188.89;223434;1265;139925;-88
2023/06/17 01:40:11;;;;;;;15.00;9.70;;;;;;;13.29;97.27;100192.61;222749;1267;141504;-88
2023/06/17 01:45:13;;;;;;;15.10;10.50;;;;;;;13.23;97.45;100189.64;223483;1265;139245;-89
2023/06/17 01:50:18;;;;;;;16.90;11.70;;;;;;;13.19;96.60;100186.27;223067;1263;141559;-89
2023/06/17 01:55:19;;;;;;;18.10;12.40;;;;;;;13.18;97.08;100176.23;223438;1266;139412;-88
2023/06/17 02:00:20;;;;;;;16.50;11.80;;;;;;;13.14;97.91;100179.17;223038;1264;141496;-88
2023/06/17 02:05:20;;;;;;;14.20;11.00;;;;;;;13.09;98.15;100182.74;223790;1266;96834;-89
2023/06/17 02:10:20;;;;;;;18.10;13.00;;;;;;;13.05;97.97;100187.56;222919;1264;142349;-87
2023/06/17 02:15:21;;;;;;;14.80;11.10;;;;;;;13.01;98.28;100184.52;223435;1263;138790;-88
2023/06/17 02:20:22;;;;;;;16.90;12.30;;;;;;;12.98;98.65;100184.98;222996;1263;141226;-88
2023/06/17 02:25:23;;;;;;;15.80;11.20;;;;;;;12.93;99.55;100184.51;223439;1265;139195;-88
2023/06/17 02:30:23;;;;;;;20.10;13.90;;;;;;;12.86;99.55;100175.27;222987;1265;141686;-88
2023/06/17 02:35:24;;;;;;;16.10;11.50;;;;;;;12.81;99.64;100178.20;221684;1268;111367;-87
2023/06/17 02:40:24;;;;;;;16.20;12.00;;;;;;;12.74;99.70;100180.73;221696;1265;141383;-86
2023/06/17 02:45:24;;;;;;;16.20;10.40;;;;;;;12.70;99.78;100188.16;223280;1265;139484;-87
2023/06/17 02:50:25;;;;;;;15.00;10.40;;;;;;;12.67;99.79;100182.34;222666;1266;142159;-87
2023/06/17 02:55:27;;;;;;;17.70;13.10;;;;;;;12.63;99.55;100181.86;223539;1264;139219;-87
2023/06/17 03:00:27;;;;;;;16.50;12.30;;;;;;;12.61;99.54;100180.53;223040;1264;142827;-86
2023/06/17 03:05:30;;;;;;;16.60;13.10;;;;;;;12.62;99.62;100186.13;223501;1263;97008;-87
2023/06/17 03:10:30;;;;;;;17.10;12.30;;;;;;;12.61;100.00;100189.67;222808;1265;141462;-86
2023/06/17 03:15:32;;;;;;;15.70;11.20;;;;;;;12.61;99.82;100192.44;223483;1265;139696;-87
2023/06/17 03:20:34;;;;;;;14.90;11.00;;;;;;;12.62;100.00;100186.91;222816;1264;143148;-86
2023/06/17 03:25:35;;;;;;;16.40;11.80;;;;;;;12.62;100.00;100186.27;223312;1264;139543;-87
2023/06/17 03:30:38;;;;;;;16.30;10.90;;;;;;;12.63;100.00;100188.65;222973;1263;141436;-87
2023/06/17 03:35:39;;;;;;;16.00;11.50;;;;;;;12.65;100.00;100193.23;223619;1264;111176;-86
2023/06/17 03:40:39;;;;;;;15.30;10.60;;;;;;;12.68;100.00;100194.71;222912;1263;141612;-85
2023/06/17 03:45:40;;;;;;;16.80;11.50;;;;;;;12.71;100.00;100200.63;223492;1266;139190;-86
2023/06/17 03:50:40;;;;;;;18.30;13.80;;;;;;;12.74;100.00;100201.25;222771;1264;141715;-86
2023/06/17 03:55:41;;;;;;;15.90;12.10;;;;;;;12.80;100.00;100201.96;223349;1264;139620;-86
2023/06/17 04:00:42;;;;;;;17.50;13.60;;;;;;;12.85;100.00;100201.17;222993;1263;141297;-86
2023/06/17 04:05:43;;;;;;;19.60;13.60;;;;;;;12.90;100.00;100203.04;223710;1264;96564;-86
2023/06/17 04:10:43;;;;;;;16.90;12.40;;;;;;;12.97;100.00;100207.55;223015;1263;142183;-86
2023/06/17 04:15:47;;;;;;;15.40;11.30;;;;;;;13.03;100.00;100207.30;223568;1264;139364;-86
2023/06/17 04:20:49;;;;;;;18.20;13.80;;;;;;;13.12;100.00;100204.21;221513;1267;143741;-86
2023/06/17 04:25:50;;;;;;;16.20;12.30;;;;;;;13.21;100.00;100201.27;221669;1266;139534;-87
2023/06/17 04:30:51;;;;;;;19.00;14.50;;;;;;;13.32;100.00;100198.30;222830;1267;143895;-86
2023/06/17 04:35:51;;;;;;;19.90;15.20;;;;;;;13.47;100.00;100194.68;223509;1265;96307;-88
2023/06/17 04:40:52;;;;;;;19.70;14.70;;;;;;;13.65;100.00;100193.48;222822;1268;141297;-88
2023/06/17 04:45:52;;;;;;;20.60;15.40;;;;;;;13.85;100.00;100194.40;223523;1267;139474;-87
2023/06/17 04:50:55;;;;;;;22.60;16.50;;;;;;;14.11;100.00;100192.04;222781;1266;141610;-87
2023/06/17 04:55:56;;;;;;;19.80;15.10;;;;;;;14.38;100.00;100190.03;223444;1264;139612;-88
2023/06/17 05:00:57;;;;;;;21.00;16.50;;;;;;;14.65;100.00;100184.09;222983;1264;142597;-88
2023/06/17 05:05:58;;;;;;;19.10;14.40;;;;;;;14.96;100.00;100186.80;223571;1264;97873;-88
2023/06/17 05:10:58;;;;;;;18.30;13.30;;;;;;;15.26;100.00;100177.43;222935;1264;143333;-88
2023/06/17 05:15:59;;;;;;;15.80;12.10;;;;;;;15.61;100.00;100172.09;223525;1264;139290;-88
2023/06/17 05:21:02;;;;;;;17.10;12.40;;;;;;;16.10;100.00;100168.27;222702;1266;142418;-89
2023/06/17 05:26:03;;;;;;;16.40;10.80;;;;;;;16.67;100.00;100172.14;223438;1267;139531;-88
2023/06/17 05:31:03;;;;;;;15.80;12.10;;;;;;;17.17;100.00;100173.88;222910;1264;141314;-88
2023/06/17 05:36:04;;;;;;;15.10;11.20;;;;;;;17.60;100.00;100170.46;223630;1264;96167;-88
2023/06/17 05:41:04;;;;;;;15.80;9.80;;;;;;;18.01;100.00;100164.86;222903;1267;141912;-89
2023/06/17 05:46:05;;;;;;;12.90;9.70;;;;;;;18.48;100.00;100167.38;223534;1264;139358;-89
2023/06/17 05:51:05;;;;;;;13.90;10.60;;;;;;;19.06;98.00;100161.63;222979;1264;141719;-90
2023/06/17 05:56:09;;;;;;;11.40;8.80;;;;;;;19.61;95.50;100164.46;223483;1266;139250;-88
2023/06/17 06:01:11;;;;;;;12.90;8.10;;;;;;;20.30;93.30;100174.73;222603;1264;142325;-89
2023/06/17 06:06:11;;;;;;;10.00;6.80;;;;;;;21.02;90.58;100175.97;222922;1267;97776;-88
2023/06/17 06:11:12;;;;;;;11.90;7.20;;;;;;;21.78;88.08;100181.11;220488;1268;140934;-89
2023/06/17 06:16:12;;;;;;;11.30;7.00;;;;;;;22.52;85.10;100181.89;223309;1264;139438;-88
2023/06/17 06:21:13;;;;;;;9.60;5.40;;;;;;;23.10;81.32;100186.14;222717;1266;141718;-88
2023/06/17 06:26:13;;;;;;;9.90;5.80;;;;;;;23.67;77.39;100189.66;223356;1267;138869;-88
2023/06/17 06:31:14;;;;;;;9.30;6.40;;;;;;;24.22;76.04;100191.09;223001;1264;141453;-86
2023/06/17 06:36:14;;;;;;;20.60;8.70;;;;;;;24.66;74.01;100188.02;223145;1264;232739;-87
2023/06/17 06:41:15;;;;;;;11.70;6.50;;;;;;;25.17;72.70;100191.81;222850;1267;142401;-88
2023/06/17 06:46:15;;;;;;;12.60;5.90;;;;;;;25.73;69.43;100191.64;223527;1264;138499;-88
2023/06/17 06:51:16;;;;;;;13.60;5.80;;;;;;;26.26;67.81;100189.16;223041;1264;140728;-87
2023/06/17 06:56:17;;;;;;;10.70;5.70;;;;;;;26.79;64.67;100190.12;223430;1264;138460;-88
2023/06/17 07:01:18;;;;;;;9.40;6.30;;;;;;;27.28;63.41;100184.59;223010;1264;141177;-88
2023/06/17 07:06:19;;;;;;;8.10;4.80;;;;;;;27.51;59.73;100183.83;223447;1263;138121;-88
2023/06/17 07:11:19;;;;;;;9.40;5.90;;;;;;;27.81;59.33;100187.53;223029;1264;139917;-86
2023/06/17 07:16:20;;;;;;;7.10;4.30;;;;;;;28.21;57.00;100180.20;223436;1267;138169;-87
2023/06/17 07:21:20;;;;;;;7.30;4.40;;;;;;;28.37;55.87;100184.71;222997;1264;140399;-88
2023/06/17 07:26:21;;;;;;;11.10;5.50;;;;;;;28.55;56.09;100188.08;223349;1264;138172;-87
2023/06/17 07:31:22;;;;;;;9.90;5.60;;;;;;;28.72;52.98;100195.09;222888;1264;141702;-87
2023/06/17 07:36:23;;;;;;;7.20;4.70;;;;;;;28.63;52.71;100190.92;223442;1264;138640;-86
2023/06/17 07:41:24;;;;;;;8.20;4.80;;;;;;;28.73;50.71;100191.95;222908;1264;140136;-86
2023/06/17 07:46:25;;;;;;;9.10;5.70;;;;;;;28.17;49.12;100190.73;223372;1264;138202;-86
2023/06/17 07:51:26;;;;;;;6.80;4.40;;;;;;;28.21;51.09;100191.77;222901;1263;140526;-89
2023/06/17 07:56:27;;;;;;;9.70;5.20;;;;;;;28.71;52.04;100187.87;221486;1267;138580;-87
2023/06/17 08:01:28;;;;;;;8.00;5.00;;;;;;;29.28;51.83;100188.66;222022;1264;142939;-87
2023/06/17 08:06:29;;;;;;;6.50;4.20;;;;;;;29.55;49.53;100187.45;223446;1264;138321;-87
2023/06/17 08:11:29;;;;;;;6.70;4.90;;;;;;;29.74;48.33;100186.17;222872;1264;141708;-90
2023/06/17 08:16:30;;;;;;;9.90;5.40;;;;;;;29.77;47.38;100190.50;223455;1264;138655;-86
2023/06/17 08:21:30;;;;;;;7.20;4.70;;;;;;;29.67;46.87;100188.42;223010;1264;141787;-87
2023/06/17 08:26:30;;;;;;;8.30;5.50;;;;;;;29.57;46.70;100182.98;223350;1264;138463;-87
2023/06/17 08:31:31;;;;;;;8.50;5.20;;;;;;;29.48;47.04;100180.52;223001;1264;140117;-87
2023/06/17 08:36:32;;;;;;;7.40;4.90;;;;;;;29.36;46.12;100182.30;223536;1264;138706;-87
2023/06/17 08:41:41;;;;;;;7.50;4.40;;;;;;;29.66;47.26;100181.20;223105;1263;140483;-87
2023/06/17 08:46:43;;;;;;;11.60;6.20;;;;;;;30.08;45.75;100182.85;223324;1263;138465;-89
2023/06/17 08:51:48;;;;;;;9.00;5.70;;;;;;;30.16;45.34;100181.66;222724;1264;139520;-87
2023/06/17 08:56:48;;;;;;;;;;;;;;;30.04;44.62;100184.73;223350;1263;138956;-88
2023/06/17 09:01:51;;;;;;;8.30;4.70;;;;;;;29.72;44.45;100181.89;223036;1264;127216;-87
2023/06/17 09:06:52;;;;;;;8.40;5.70;;;;;;;30.18;45.46;100180.05;223554;1264;140103;-90
2023/06/17 09:11:53;;;;;;;10.80;5.30;;;;;;;30.32;43.50;100175.81;223080;1263;140599;-86
2023/06/17 09:16:54;;;;;;;8.00;5.30;;;;;;;30.63;43.74;100176.79;223301;1264;138375;-86
2023/06/17 09:21:55;;;;;;;9.40;6.10;;;;;;;31.03;43.87;100173.68;223085;1264;140482;-86
2023/06/17 09:26:56;;;;;;;8.00;6.00;;;;;;;31.69;44.09;100176.75;223567;1263;138456;-86
2023/06/17 09:31:57;;;;;;;9.00;6.40;;;;;;;31.85;42.76;100175.42;222868;1264;140317;-86
2023/06/17 09:37:01;;;;;;;8.60;6.30;;;;;;;31.81;41.96;100175.08;223327;1264;138304;-85
2023/06/17 09:42:09;;;;;;;9.30;6.90;;;;;;;31.82;40.86;100170.58;221596;1263;140267;-89
2023/06/17 09:47:11;;;;;;;10.80;6.90;;;;;;;31.81;40.88;100173.80;221923;1263;138821;-87
2023/06/17 09:52:12;;;;;;;9.50;7.10;;;;;;;31.77;39.35;100167.02;222874;1263;140834;-88
2023/06/17 09:57:17;;;;;;;9.20;7.00;;;;;;;31.49;40.39;100166.27;223299;1264;140181;-87
2023/06/17 10:02:17;;;;;;;;;;;;;;;31.69;40.19;100165.46;222942;1267;139695;-87
2023/06/17 10:07:21;;;;;;;9.30;6.10;;;;;;;31.75;39.78;100162.55;223467;1263;124795;-86
2023/06/17 10:12:24;;;;;;;8.20;5.80;;;;;;;31.85;39.25;100153.89;223005;1263;139771;-87
2023/06/17 10:17:26;;;;;;;8.00;5.50;;;;;;;32.23;38.16;100152.37;223502;1264;103292;-86
2023/06/17 10:22:27;;;;;;;10.40;6.70;;;;;;;32.16;39.22;100145.05;222905;1264;142489;-87
2023/06/17 10:27:28;;;;;;;8.10;5.60;;;;;;;32.35;37.67;100149.99;223481;1263;138518;-86
2023/06/17 10:32:28;;;;;;;8.20;5.40;;;;;;;32.64;37.21;100141.17;222771;1263;141377;-89
2023/06/17 10:37:29;;;;;;;7.90;5.20;;;;;;;33.01;35.43;100141.11;223198;1263;138870;-88
2023/06/17 10:42:29;;;;;;;8.90;5.80;;;;;;;32.31;34.46;100147.89;222895;1263;140071;-85
2023/06/17 10:47:30;;;;;;;8.80;5.30;;;;;;;31.69;35.10;100139.77;223509;1264;96388;-85
2023/06/17 10:52:30;;;;;;;8.30;4.70;;;;;;;31.66;36.68;100141.64;222924;1264;140056;-86
2023/06/17 10:57:34;;;;;;;8.80;5.40;;;;;;;32.15;35.28;100142.19;223428;1263;138126;-87
2023/06/17 11:02:36;;;;;;;9.00;5.20;;;;;;;32.23;35.88;100132.79;222727;1267;140582;-87
2023/06/17 11:07:37;;;;;;;7.80;5.90;;;;;;;32.66;35.34;100130.89;223362;1264;139720;-87
2023/06/17 11:12:39;;;;;;;8.50;5.80;;;;;;;33.02;34.49;100131.86;222791;1264;141130;-87
2023/06/17 11:17:39;;;;;;;7.50;5.30;;;;;;;32.70;34.10;100127.16;223682;1263;96630;-85
2023/06/17 11:22:40;;;;;;;8.20;5.50;;;;;;;32.71;34.83;100126.90;222875;1263;140257;-85
2023/06/17 11:27:41;;;;;;;9.70;6.00;;;;;;;32.94;35.50;100123.24;223148;1264;138922;-86
2023/06/17 11:32:45;;;;;;;8.60;5.60;;;;;;;32.80;33.56;100118.14;220183;1264;139832;-88
2023/06/17 11:37:46;;;;;;;;;;;;;;;32.37;32.86;100116.50;223075;1264;139067;-86
2023/06/17 11:42:46;;;;;;;11.80;6.90;;;;;;;32.19;33.31;100120.35;222827;1264;126532;-88
2023/06/17 11:47:47;;;;;;;9.80;6.50;;;;;;;32.30;33.75;100116.41;223318;1263;96205;-85
2023/06/17 11:52:54;;;;;;;9.10;6.50;;;;;;;32.21;34.59;100112.60;222889;1263;139763;-87
2023/06/17 11:57:55;;;;;;;8.00;5.40;;;;;;;32.24;34.24;100115.95;223454;1264;138010;-84
2023/06/17 12:02:57;;;;;;;8.50;5.30;;;;;;;32.14;33.56;100115.58;222900;1264;140955;-90
2023/06/17 12:08:01;;;;;;;9.00;6.10;;;;;;;31.95;33.95;100111.11;223395;1263;138134;-90
2023/06/17 12:13:01;;;;;;;7.60;5.50;;;;;;;31.99;34.45;100108.21;222803;1263;139987;-89
2023/06/17 12:18:10;;;;;;;11.40;6.30;;;;;;;31.69;34.69;100107.84;223559;1263;96937;-88
2023/06/17 12:23:10;;;;;;;9.90;6.10;;;;;;;31.50;35.33;100108.96;222905;1263;141832;-88
2023/06/17 12:28:11;;;;;;;8.70;5.80;;;;;;;31.33;35.38;100104.68;223476;1263;138615;-89
2023/06/17 12:33:12;;;;;;;9.30;5.70;;;;;;;30.74;35.29;100097.56;222934;1264;140251;-89
2023/06/17 12:38:12;;;;;;;10.00;5.00;;;;;;;30.12;36.03;100096.07;223568;1263;138256;-91
2023/06/17 12:43:13;;;;;;;9.80;5.60;;;;;;;29.92;36.55;100096.35;222765;1264;140390;-86
2023/06/17 12:48:13;;;;;;;10.40;6.40;;;;;;;29.58;36.96;100102.28;223592;1263;97917;-91
2023/06/17 12:53:14;;;;;;;9.50;5.90;;;;;;;29.09;36.73;100101.95;222974;1263;142518;-87
2023/06/17 12:58:15;;;;;;;8.50;5.80;;;;;;;28.60;38.62;100103.46;223512;1263;138130;-88
2023/06/17 13:03:16;;;;;;;10.40;6.60;;;;;;;28.56;40.01;100100.36;222886;1263;139905;-85
2023/06/17 13:08:17;;;;;;;9.40;6.00;;;;;;;28.77;39.67;100100.09;223411;1263;138301;-88
2023/06/17 13:13:17;;;;;;;11.80;6.10;;;;;;;28.90;38.65;100093.19;222651;1265;139921;-89
2023/06/17 13:18:17;;;;;;;9.50;5.80;;;;;;;28.85;39.40;100091.06;221530;1265;138355;-90
2023/06/17 13:23:18;;;;;;;7.70;5.20;;;;;;;29.10;38.67;100087.64;221733;1264;140846;-86
2023/06/17 13:28:19;;;;;;;8.60;5.50;;;;;;;29.16;38.31;100088.64;223298;1264;137920;-89
2023/06/17 13:33:20;;;;;;;9.10;5.40;;;;;;;29.29;38.64;100086.55;222878;1264;140666;-88
2023/06/17 13:38:20;;;;;;;7.50;4.90;;;;;;;29.25;37.01;100083.83;223256;1263;138195;-87
2023/06/17 13:43:21;;;;;;;9.90;5.50;;;;;;;29.20;38.31;100072.62;222870;1265;140071;-89
2023/06/17 13:48:21;;;;;;;8.80;4.90;;;;;;;29.39;37.76;100077.60;223394;1264;138550;-86
2023/06/17 13:53:22;;;;;;;11.60;6.60;;;;;;;29.53;38.65;100072.88;222991;1264;144881;-87
2023/06/17 13:58:23;;;;;;;7.60;4.90;;;;;;;29.93;37.64;100074.92;223355;1264;138643;-89
2023/06/17 14:03:23;;;;;;;8.40;4.80;;;;;;;29.91;36.96;100072.52;223035;1263;141509;-87
2023/06/17 14:08:24;;;;;;;9.00;5.50;;;;;;;30.15;38.41;100068.94;223378;1264;138233;-88
2023/06/17 14:13:24;;;;;;;7.60;4.90;;;;;;;30.31;35.84;100069.52;222768;1264;139841;-90
2023/06/17 14:18:24;;;;;;;7.60;4.30;;;;;;;30.33;37.12;100086.55;223252;1264;138621;-85
2023/06/17 14:23:25;;;;;;;8.00;5.20;;;;;;;29.94;37.09;100107.23;222948;1264;140180;-85
2023/06/17 14:28:25;;;;;;;10.40;5.10;;;;;;;28.81;39.00;100109.54;223489;1263;138001;-88
2023/06/17 14:33:25;;;;;;;8.00;6.00;;;;;;;28.08;41.19;100114.41;222687;1263;140786;-88
2023/06/17 14:38:26;;;;;;;7.60;5.10;;;;;;;27.44;42.23;100116.04;223260;1264;138111;-87
2023/06/17 14:43:26;;;;;;;7.50;5.00;;;;;;;26.85;43.93;100114.83;222768;1263;141136;-87
2023/06/17 14:48:27;;;;;;;8.20;5.00;;;;;;;26.67;44.38;100113.98;223378;1264;139416;-86
2023/06/17 14:53:31;;;;;;;7.90;4.30;;;;;;;26.29;44.72;100116.83;222970;1263;141586;-87
2023/06/17 14:58:32;;;;;;;7.80;4.70;;;;;;;25.69;44.98;100108.90;223126;1264;139153;-89
2023/06/17 15:03:32;;;;;;;7.80;4.40;;;;;;;25.19;45.95;100111.91;221862;1267;140315;-90
2023/06/17 15:08:32;;;;;;;5.40;3.50;;;;;;;25.03;46.45;100113.61;221276;1264;138526;-87
2023/06/17 15:13:33;;;;;;;6.70;4.30;;;;;;;24.81;46.85;100114.55;222394;1266;141118;-91
2023/06/17 15:18:37;;;;;;;7.50;5.00;;;;;;;24.68;46.99;100113.25;223200;1264;138545;-90
2023/06/17 15:23:38;;;;;;;7.80;5.00;;;;;;;24.30;47.29;100112.59;222931;1263;140363;-87
2023/06/17 15:28:39;;;;;;;5.40;3.60;;;;;;;23.96;48.08;100112.33;223334;1264;138297;-88
2023/06/17 15:33:39;;;;;;;9.20;4.40;;;;;;;23.72;49.22;100112.02;222863;1264;140126;-88
2023/06/17 15:38:39;;;;;;;8.30;4.30;;;;;;;23.69;49.86;100112.41;223194;1264;139106;-89
2023/06/17 15:43:40;;;;;;;8.10;4.40;;;;;;;23.55;50.98;100112.66;222618;1264;141072;-87
2023/06/17 15:48:40;;;;;;;7.60;4.80;;;;;;;23.34;52.75;100100.05;223333;1264;138617;-90
2023/06/17 15:53:41;;;;;;;7.30;4.70;;;;;;;23.20;53.29;100090.34;223004;1264;138610;-87
2023/06/17 15:58:41;;;;;;;8.10;4.80;;;;;;;23.03;53.67;100089.86;223378;1264;137986;-87
2023/06/17 16:03:43;;;;;;;6.00;4.00;;;;;;;22.95;53.05;100096.02;222632;1266;140952;-88
2023/06/17 16:08:45;;;;;;;7.30;3.80;;;;;;;22.73;52.52;100107.98;223399;1265;138776;-88
2023/06/17 16:13:45;;;;;;;7.00;3.90;;;;;;;22.67;53.40;100103.91;222913;1264;138979;-87
2023/06/17 16:18:45;;;;;;;6.10;3.60;;;;;;;22.75;53.31;100101.31;223343;1264;138143;-87
2023/06/17 16:23:46;;;;;;;8.90;4.30;;;;;;;22.71;53.10;100098.40;223026;1264;139985;-91
2023/06/17 16:28:46;;;;;;;7.60;3.50;;;;;;;22.61;52.70;100100.91;223458;1264;138097;-87
2023/06/17 16:33:47;;;;;;;6.10;3.60;;;;;;;22.33;53.12;100108.63;222980;1263;141630;-89
2023/06/17 16:38:47;;;;;;;5.80;3.20;;;;;;;22.28;53.84;100109.89;223274;1264;138073;-86
2023/06/17 16:43:48;;;;;;;5.70;3.70;;;;;;;22.22;54.01;100104.85;222717;1264;140607;-88
2023/06/17 16:48:49;;;;;;;5.90;3.40;;;;;;;22.11;53.74;100100.35;223479;1264;140532;-88
2023/06/17 16:53:49;;;;;;;5.40;3.60;;;;;;;22.05;54.23;100099.45;221276;1264;150761;-89
2023/06/17 16:58:50;;;;;;;6.40;4.00;;;;;;;21.94;53.71;100094.10;221668;1264;140334;-89
2023/06/17 17:03:50;;;;;;;7.60;4.10;;;;;;;21.82;53.70;100091.60;223256;1264;138059;-90
2023/06/17 17:08:52;;;;;;;7.30;4.10;;;;;;;21.79;54.42;100093.88;222899;1264;142379;-87
2023/06/17 17:13:53;;;;;;;6.90;3.80;;;;;;;21.80;54.49;100103.48;223348;1264;138196;-90
2023/06/17 17:18:53;;;;;;;7.40;4.00;;;;;;;21.80;54.74;100110.73;222958;1264;140314;-90
2023/06/17 17:23:53;;;;;;;8.30;4.60;;;;;;;21.75;54.77;100110.70;223612;1264;111167;-91
2023/06/17 17:28:54;;;;;;;6.90;3.90;;;;;;;21.70;55.10;100118.59;222793;1264;161956;-91
2023/06/17 17:33:55;;;;;;;6.70;3.60;;;;;;;21.71;55.56;100124.96;223365;1264;138106;-89
2023/06/17 17:38:55;;;;;;;6.00;3.90;;;;;;;21.69;55.54;100132.74;223051;1264;141230;-89
2023/06/17 17:43:56;;;;;;;8.50;4.60;;;;;;;21.62;55.84;100133.27;223463;1263;138426;-90
2023/06/17 17:48:56;;;;;;;7.40;4.30;;;;;;;21.56;56.44;100128.54;222955;1266;140222;-90
2023/06/17 17:53:56;;;;;;;5.70;3.60;;;;;;;21.48;56.83;100127.98;223554;1263;96948;-90
2023/06/17 17:58:57;;;;;;;8.00;4.90;;;;;;;21.45;57.38;100138.23;223024;1264;140389;-90
2023/06/17 18:03:58;;;;;;;6.70;4.60;;;;;;;21.42;58.09;100150.77;223622;1264;138375;-90
2023/06/17 18:08:58;;;;;;;9.70;5.10;;;;;;;21.39;59.05;100158.27;223037;1265;140748;-89
2023/06/17 18:13:59;;;;;;;7.30;4.20;;;;;;;21.34;60.51;100163.39;223605;1263;139191;-89
2023/06/17 18:18:59;;;;;;;10.20;5.90;;;;;;;21.24;61.24;100159.28;222955;1263;140657;-89
2023/06/17 18:24:02;;;;;;;10.50;6.30;;;;;;;21.15;61.37;100163.94;223828;1264;96224;-90
2023/06/17 18:29:03;;;;;;;11.40;6.00;;;;;;;21.07;62.30;100171.83;222942;1264;141340;-89
2023/06/17 18:34:03;;;;;;;11.60;5.90;;;;;;;20.99;62.34;100183.30;223613;1263;138438;-89
2023/06/17 18:39:04;;;;;;;9.40;5.70;;;;;;;20.93;62.54;100186.45;221660;1267;297727;-89
2023/06/17 18:44:04;;;;;;;10.10;5.80;;;;;;;20.88;63.36;100179.13;221518;1265;138341;-89
2023/06/17 18:49:06;;;;;;;7.50;5.00;;;;;;;20.76;63.40;100177.04;223041;1264;140554;-90
2023/06/17 18:54:07;;;;;;;9.30;5.60;;;;;;;20.69;63.38;100175.77;223689;1263;96327;-90
2023/06/17 18:59:07;;;;;;;9.30;5.80;;;;;;;20.63;63.82;100180.19;222828;1263;140078;-89
2023/06/17 19:04:08;;;;;;;11.00;7.10;;;;;;;20.45;64.39;100179.68;223422;1265;138214;-90
2023/06/17 19:09:09;;;;;;;11.60;7.10;;;;;;;20.32;65.20;100182.77;223087;1263;140562;-90
2023/06/17 19:14:10;;;;;;;19.20;14.90;;;;;;;20.19;65.43;100180.32;223400;1263;140381;-89
2023/06/17 19:19:10;;;;;;;14.60;9.90;;;;;;;20.08;65.79;100184.09;223065;1265;141123;-91
2023/06/17 19:24:11;;;;;;;9.90;7.00;;;;;;;19.89;65.90;100184.65;223797;1265;96568;-91
2023/06/17 19:29:11;;;;;;;10.30;6.90;;;;;;;19.75;66.41;100194.36;223119;1265;140207;-91
2023/06/17 19:34:12;;;;;;;11.30;7.10;;;;;;;19.63;66.78;100198.20;223703;1265;138389;-90
2023/06/17 19:39:12;;;;;;;9.70;6.70;;;;;;;19.54;67.13;100206.45;223079;1266;140210;-90
2023/06/17 19:44:12;;;;;;;10.30;5.90;;;;;;;19.42;67.79;100204.02;223753;1264;138667;-90
2023/06/17 19:49:13;;;;;;;10.60;6.20;;;;;;;19.29;68.27;100199.42;223100;1263;141576;-90
2023/06/17 19:54:14;;;;;;;8.70;5.40;;;;;;;19.17;69.01;100206.75;223775;1264;139181;-89
2023/06/17 19:59:14;;;;;;;8.20;5.20;;;;;;;19.05;69.54;100213.63;223286;1263;140475;-90
2023/06/17 20:04:15;;;;;;;11.60;6.10;;;;;;;18.94;69.66;100216.05;223500;1263;138194;-91
2023/06/17 20:09:15;;;;;;;10.00;6.10;;;;;;;18.87;70.33;100213.70;222965;1263;140899;-90
2023/06/17 20:14:16;;;;;;;8.90;5.90;;;;;;;18.75;70.52;100215.04;223583;1264;138411;-90
2023/06/17 20:19:16;;;;;;;10.20;6.30;;;;;;;18.66;71.21;100215.05;222999;1267;140461;-90
2023/06/17 20:24:17;;;;;;;10.60;6.60;;;;;;;18.60;70.53;100212.00;223614;1264;138585;-90
2023/06/17 20:29:17;;;;;;;12.10;7.50;;;;;;;18.53;70.99;100216.41;220647;1268;141216;-90
2023/06/17 20:34:19;;;;;;;10.40;6.50;;;;;;;18.39;72.02;100219.84;222779;1264;139326;-91
2023/06/17 20:39:20;;;;;;;11.30;6.90;;;;;;;18.29;71.85;100228.73;222884;1266;141925;-90
2023/06/17 20:44:21;;;;;;;12.70;7.50;;;;;;;18.22;72.44;100235.66;223645;1264;140338;-91
2023/06/17 20:49:21;;;;;;;14.60;7.90;;;;;;;18.10;73.19;100233.55;223102;1263;141698;-91
2023/06/17 20:54:21;;;;;;;13.30;7.50;;;;;;;17.96;74.07;100238.65;223503;1263;140300;-90
2023/06/17 20:59:24;;;;;;;13.30;8.40;;;;;;;17.86;73.92;100237.44;223246;1263;141325;-91
2023/06/17 21:04:24;;;;;;;13.00;7.90;;;;;;;17.80;74.18;100231.92;223510;1265;139272;-90
2023/06/17 21:09:25;;;;;;;14.30;9.70;;;;;;;17.73;74.18;100229.93;223078;1266;140904;-91
2023/06/17 21:14:26;;;;;;;11.50;7.70;;;;;;;17.62;75.32;100233.89;223590;1264;139121;-91
2023/06/17 21:19:26;;;;;;;11.20;7.60;;;;;;;17.45;75.57;100232.09;223115;1265;141761;-91
2023/06/17 21:24:27;;;;;;;12.40;7.40;;;;;;;17.36;75.77;100232.66;223624;1263;139500;-90
2023/06/17 21:29:27;;;;;;;14.10;8.30;;;;;;;17.28;76.03;100237.56;223231;1265;141058;-91
2023/06/17 21:34:27;;;;;;;13.50;8.00;;;;;;;17.18;76.45;100238.63;223656;1264;139386;-91
2023/06/17 21:39:28;;;;;;;11.10;7.60;;;;;;;17.15;76.20;100239.79;223113;1264;141078;-90
2023/06/17 21:44:29;;;;;;;11.40;7.40;;;;;;;17.12;77.24;100241.84;223580;1263;139239;-91
2023/06/17 21:49:30;;;;;;;14.50;7.60;;;;;;;17.03;77.25;100242.64;222923;1264;141632;-90
2023/06/17 21:54:31;;;;;;;10.80;7.00;;;;;;;16.99;77.25;100250.81;223424;1265;138995;-91
2023/06/17 21:59:32;;;;;;;14.70;8.50;;;;;;;16.99;76.92;100258.43;222898;1264;143134;-91
2023/06/17 22:04:32;;;;;;;12.10;8.60;;;;;;;16.97;78.32;100259.59;223620;1263;139210;-91
2023/06/17 22:09:33;;;;;;;12.20;7.20;;;;;;;16.91;78.28;100259.05;222912;1264;143508;-91
2023/06/17 22:14:33;;;;;;;11.80;8.80;;;;;;;16.91;78.86;100251.66;221787;1267;139283;-90
2023/06/17 22:19:34;;;;;;;11.10;7.50;;;;;;;16.89;78.74;100248.36;221375;1264;141428;-90
2023/06/17 22:24:34;;;;;;;12.40;7.60;;;;;;;16.91;79.08;100249.92;223494;1263;139855;-90
2023/06/17 22:29:35;;;;;;;14.50;9.90;;;;;;;16.92;79.19;100249.67;223203;1263;141632;-91
2023/06/17 22:34:36;;;;;;;11.70;7.80;;;;;;;16.89;79.84;100250.44;223596;1264;138842;-91
2023/06/17 22:39:37;;;;;;;13.50;8.00;;;;;;;16.90;80.10;100248.59;223062;1267;141529;-91